Time;durP1;ratioP1;P1;durP2;ratioP2;P2;SDS_P1;SDS_P2;PMS_P1;PMS_P2;Temp;Humidity;BMP_temperature;BMP_pressure;BME280_temperature;BME280_humidity;BME280_pressure;Samples;Min_cycle;Max_cycle;Signal;HPM_P1;HPM_P2
2021/06/07 00:00:53;;;;;;;16.25;7.90;;;16.80;99.90;;;;;;1973372;73;21124;-74
2021/06/07 00:03:19;;;;;;;20.27;8.50;;;16.70;99.90;;;;;;1973263;73;21516;-73
2021/06/07 00:05:45;;;;;;;13.48;7.87;;;16.80;99.90;;;;;;1973304;73;21568;-74
2021/06/07 00:08:11;;;;;;;17.52;7.83;;;16.80;99.90;;;;;;1973383;73;21517;-75
2021/06/07 00:10:37;;;;;;;18.40;8.28;;;16.70;99.90;;;;;;1973419;73;21656;-74
2021/06/07 00:13:03;;;;;;;13.35;7.25;;;16.70;99.90;;;;;;1973413;73;21452;-76
2021/06/07 00:15:29;;;;;;;16.20;7.78;;;16.80;99.90;;;;;;1973537;73;21371;-75
2021/06/07 00:17:55;;;;;;;16.32;6.78;;;16.80;99.90;;;;;;1973720;73;21080;-76
2021/06/07 00:20:22;;;;;;;13.22;7.03;;;16.70;99.90;;;;;;1973690;73;21059;-75
2021/06/07 00:22:48;;;;;;;15.30;7.97;;;16.80;99.90;;;;;;1973606;73;21084;-75
2021/06/07 00:25:14;;;;;;;12.93;6.85;;;16.70;99.90;;;;;;1974052;73;21076;-75
2021/06/07 00:27:40;;;;;;;17.35;8.03;;;16.70;99.90;;;;;;1973930;73;21117;-75
2021/06/07 00:30:06;;;;;;;15.10;8.03;;;16.70;99.90;;;;;;1973785;73;21065;-75
2021/06/07 00:32:32;;;;;;;16.77;8.05;;;16.70;99.90;;;;;;1973750;73;21071;-75
2021/06/07 00:34:58;;;;;;;14.23;7.60;;;16.70;99.90;;;;;;1973771;73;21155;-75
2021/06/07 00:37:24;;;;;;;13.85;7.65;;;16.60;99.90;;;;;;1973739;73;21068;-75
2021/06/07 00:39:51;;;;;;;14.50;7.75;;;16.60;99.90;;;;;;1973678;73;21169;-75
2021/06/07 00:42:17;;;;;;;14.73;7.40;;;16.50;99.90;;;;;;1973768;73;21076;-75
2021/06/07 00:44:45;;;;;;;14.38;7.70;;;16.60;99.90;;;;;;1972236;72;21045;-75
2021/06/07 00:47:11;;;;;;;15.60;8.25;;;16.70;99.90;;;;;;1970502;73;21469;-75
2021/06/07 00:49:37;;;;;;;20.80;7.92;;;16.50;99.90;;;;;;1973547;73;21849;-75
2021/06/07 00:52:03;;;;;;;15.80;8.33;;;16.60;99.90;;;;;;1973551;73;21157;-76
2021/06/07 00:54:29;;;;;;;16.05;7.72;;;16.60;99.90;;;;;;1973731;73;21076;-76
2021/06/07 00:56:55;;;;;;;18.02;8.18;;;16.60;99.90;;;;;;1973733;73;21150;-75
2021/06/07 00:59:21;;;;;;;16.32;8.25;;;16.50;99.90;;;;;;1973734;73;21079;-75
2021/06/07 01:01:48;;;;;;;21.02;8.53;;;16.50;99.90;;;;;;1973674;73;21115;-75
2021/06/07 01:04:14;;;;;;;16.52;8.08;;;16.40;99.90;;;;;;1973485;73;21035;-75
2021/06/07 01:06:40;;;;;;;18.10;8.65;;;16.50;99.90;;;;;;1973456;73;21169;-75
2021/06/07 01:09:06;;;;;;;20.25;9.20;;;16.50;99.90;;;;;;1974104;73;21150;-75
2021/06/07 01:11:33;;;;;;;16.60;8.40;;;16.50;99.90;;;;;;1968973;71;21099;-74
2021/06/07 01:13:59;;;;;;;25.72;9.10;;;16.50;99.90;;;;;;1961990;72;21139;-75
2021/06/07 01:16:25;;;;;;;20.70;9.15;;;16.50;99.90;;;;;;1992285;71;21099;-75
2021/06/07 01:18:52;;;;;;;17.35;8.40;;;16.40;99.90;;;;;;1975650;71;21240;-75
2021/06/07 01:21:18;;;;;;;18.42;8.68;;;16.40;99.90;;;;;;1989671;71;21071;-76
2021/06/07 01:23:44;;;;;;;22.52;10.30;;;16.50;99.90;;;;;;1973385;73;21153;-76
2021/06/07 01:26:10;;;;;;;27.13;10.32;;;16.50;99.90;;;;;;1973491;73;21095;-75
2021/06/07 01:28:36;;;;;;;27.82;9.48;;;16.40;99.90;;;;;;1973082;73;21024;-75
2021/06/07 01:31:02;;;;;;;15.70;9.25;;;16.40;99.90;;;;;;1973271;73;21084;-75
2021/06/07 01:33:28;;;;;;;16.90;8.38;;;16.40;99.90;;;;;;1978842;71;21079;-75
2021/06/07 01:35:54;;;;;;;19.25;9.28;;;16.40;99.90;;;;;;1973415;73;21092;-75
2021/06/07 01:38:21;;;;;;;17.20;8.90;;;16.40;99.90;;;;;;1974541;73;21122;-75
2021/06/07 01:40:47;;;;;;;16.32;8.65;;;16.40;99.90;;;;;;1974605;73;21070;-75
2021/06/07 01:43:13;;;;;;;16.02;8.25;;;16.30;99.90;;;;;;1975360;73;21033;-75
2021/06/07 01:45:39;;;;;;;23.52;8.48;;;16.30;99.90;;;;;;1976327;73;21497;-75
2021/06/07 01:48:05;;;;;;;17.90;8.78;;;16.30;99.90;;;;;;1976240;73;21048;-75
2021/06/07 01:50:31;;;;;;;20.60;9.38;;;16.40;99.90;;;;;;1975637;73;21496;-75
2021/06/07 01:52:57;;;;;;;18.60;9.18;;;16.40;99.90;;;;;;1973362;73;21512;-75
2021/06/07 01:55:23;;;;;;;18.60;8.85;;;16.40;99.90;;;;;;1973321;73;21467;-75
2021/06/07 01:57:49;;;;;;;17.50;9.40;;;16.30;99.90;;;;;;1973198;73;21455;-75
2021/06/07 02:00:16;;;;;;;18.20;8.98;;;16.30;99.90;;;;;;1973276;73;21620;-75
2021/06/07 02:02:42;;;;;;;25.27;9.35;;;16.30;99.90;;;;;;1973118;73;21132;-75
2021/06/07 02:05:08;;;;;;;18.85;9.28;;;16.30;99.90;;;;;;1973095;73;21161;-75
2021/06/07 02:07:34;;;;;;;17.87;8.83;;;16.30;99.90;;;;;;1973192;73;21125;-75
2021/06/07 02:10:01;;;;;;;19.62;9.05;;;16.30;99.90;;;;;;1973193;73;21063;-75
2021/06/07 02:12:27;;;;;;;16.60;8.33;;;16.30;99.90;;;;;;1973294;73;21080;-75
2021/06/07 02:14:53;;;;;;;21.57;8.25;;;16.30;99.90;;;;;;1973183;73;21129;-74
2021/06/07 02:17:19;;;;;;;18.92;8.10;;;16.30;99.90;;;;;;1973199;73;21063;-75
2021/06/07 02:19:45;;;;;;;14.78;7.97;;;16.30;99.90;;;;;;1973157;73;21027;-75
2021/06/07 02:22:11;;;;;;;19.92;8.60;;;16.20;99.90;;;;;;1973211;73;21084;-74
2021/06/07 02:24:37;;;;;;;20.82;8.63;;;16.30;99.90;;;;;;1973300;73;21088;-75
2021/06/07 02:27:03;;;;;;;18.42;8.23;;;16.30;99.90;;;;;;1973144;73;21096;-74
2021/06/07 02:29:30;;;;;;;15.35;8.38;;;16.30;99.90;;;;;;1973283;73;21183;-74
2021/06/07 02:31:56;;;;;;;18.57;8.98;;;16.30;99.90;;;;;;1973076;73;21117;-75
2021/06/07 02:34:22;;;;;;;17.55;8.75;;;16.30;99.90;;;;;;1973271;73;21096;-75
2021/06/07 02:36:48;;;;;;;17.25;8.08;;;16.40;99.90;;;;;;1973085;73;21075;-74
2021/06/07 02:39:15;;;;;;;18.27;8.75;;;16.40;99.90;;;;;;1973259;73;21088;-75
2021/06/07 02:41:41;;;;;;;20.80;8.88;;;16.40;99.90;;;;;;1973037;73;21133;-74
2021/06/07 02:44:08;;;;;;;19.67;8.03;;;16.30;99.90;;;;;;1973276;73;21229;-75
2021/06/07 02:46:34;;;;;;;20.68;8.40;;;16.40;99.90;;;;;;1973357;73;21064;-75
2021/06/07 02:49:00;;;;;;;17.73;8.65;;;16.40;99.90;;;;;;1973400;73;21150;-75
2021/06/07 02:51:26;;;;;;;20.97;9.45;;;16.30;99.90;;;;;;1973479;73;21197;-75
2021/06/07 02:53:52;;;;;;;20.05;8.65;;;16.40;99.90;;;;;;1973376;73;21088;-75
2021/06/07 02:56:18;;;;;;;17.80;8.78;;;16.30;99.90;;;;;;1973289;73;21079;-75
2021/06/07 02:58:44;;;;;;;22.07;9.30;;;16.30;99.90;;;;;;1973069;73;21046;-75
2021/06/07 03:01:11;;;;;;;19.52;8.40;;;16.30;99.90;;;;;;1973220;73;21071;-74
2021/06/07 03:03:37;;;;;;;25.48;10.25;;;16.40;99.90;;;;;;1973259;72;21124;-74
2021/06/07 03:06:03;;;;;;;19.65;8.80;;;16.30;99.90;;;;;;1973194;73;21502;-75
2021/06/07 03:08:29;;;;;;;22.02;9.25;;;16.40;99.90;;;;;;1978924;71;21059;-74
2021/06/07 03:10:55;;;;;;;21.55;9.50;;;16.30;99.90;;;;;;1973183;73;21051;-75
2021/06/07 03:13:21;;;;;;;23.02;9.30;;;16.30;99.90;;;;;;1973167;73;21129;-75
2021/06/07 03:15:47;;;;;;;16.37;8.60;;;16.20;99.90;;;;;;1973179;73;21051;-75
2021/06/07 03:18:14;;;;;;;20.12;9.20;;;16.30;99.90;;;;;;1973143;73;21035;-75
2021/06/07 03:20:40;;;;;;;23.35;9.15;;;16.30;99.90;;;;;;1970664;71;21086;-75
2021/06/07 03:23:06;;;;;;;19.55;9.08;;;16.30;99.90;;;;;;1973165;73;21100;-76
2021/06/07 03:25:32;;;;;;;27.10;10.68;;;16.20;99.90;;;;;;1991735;71;21059;-75
2021/06/07 03:27:58;;;;;;;22.50;9.48;;;16.20;99.90;;;;;;1977997;71;21509;-75
2021/06/07 03:30:24;;;;;;;24.87;10.03;;;16.20;99.90;;;;;;1987332;71;21059;-75
2021/06/07 03:32:50;;;;;;;25.55;9.90;;;16.20;99.90;;;;;;1978934;71;21064;-75
2021/06/07 03:35:17;;;;;;;26.27;10.15;;;16.20;99.90;;;;;;1973145;73;21055;-75
2021/06/07 03:37:43;;;;;;;28.25;10.70;;;16.20;99.90;;;;;;1970726;72;21071;-75
2021/06/07 03:40:09;;;;;;;28.00;10.28;;;16.30;99.90;;;;;;1973122;73;21032;-75
2021/06/07 03:42:37;;;;;;;27.17;9.40;;;16.30;99.90;;;;;;1973209;72;21065;-75
2021/06/07 03:45:03;;;;;;;25.37;11.20;;;16.30;99.90;;;;;;1973204;73;21144;-73
2021/06/07 03:47:29;;;;;;;28.55;10.68;;;16.30;99.90;;;;;;1973194;73;21066;-75
2021/06/07 03:49:55;;;;;;;28.15;10.25;;;16.30;99.90;;;;;;1973234;73;21069;-75
2021/06/07 03:52:21;;;;;;;31.45;11.88;;;16.20;99.90;;;;;;1973096;73;21112;-74
2021/06/07 03:54:47;;;;;;;27.50;11.48;;;16.20;99.90;;;;;;1973249;73;21067;-75
2021/06/07 03:57:13;;;;;;;37.05;11.20;;;16.20;99.90;;;;;;1973023;73;21435;-74
2021/06/07 03:59:39;;;;;;;26.07;10.93;;;16.30;99.90;;;;;;1973232;73;21567;-75
2021/06/07 04:02:09;;;;;;;29.42;11.08;;;16.30;99.90;;;;;;1973216;73;21454;-75
2021/06/07 04:04:33;;;;;;;24.95;10.68;;;16.30;99.90;;;;;;1972698;72;21100;-75
2021/06/07 04:06:59;;;;;;;36.08;11.65;;;16.30;99.90;;;;;;1973118;73;21132;-74
2021/06/07 04:09:27;;;;;;;24.72;10.90;;;16.30;99.90;;;;;;1973076;73;21059;-75
2021/06/07 04:11:53;;;;;;;26.02;10.68;;;16.30;99.90;;;;;;1972957;72;21036;-75
2021/06/07 04:14:19;;;;;;;24.65;11.08;;;16.30;99.90;;;;;;1973127;73;21099;-74
2021/06/07 04:16:45;;;;;;;29.77;11.95;;;16.20;99.90;;;;;;1972914;73;21051;-74
2021/06/07 04:19:11;;;;;;;32.20;11.00;;;16.20;99.90;;;;;;1973100;73;21130;-75
2021/06/07 04:21:37;;;;;;;24.77;11.28;;;16.30;99.90;;;;;;1972904;73;21063;-74
2021/06/07 04:24:04;;;;;;;33.58;11.73;;;16.30;99.90;;;;;;1973138;73;21096;-74
2021/06/07 04:26:30;;;;;;;29.23;11.20;;;16.30;99.90;;;;;;1972921;73;21059;-74
2021/06/07 04:28:56;;;;;;;34.75;11.57;;;16.30;99.90;;;;;;1973074;73;21058;-73
2021/06/07 04:31:22;;;;;;;37.50;12.43;;;16.30;99.90;;;;;;1972866;73;21067;-79
2021/06/07 04:33:48;;;;;;;25.52;10.38;;;16.30;99.90;;;;;;1973073;73;21129;-79
2021/06/07 04:36:14;;;;;;;25.12;11.57;;;16.40;99.90;;;;;;1972993;73;21084;-79
2021/06/07 04:38:40;;;;;;;27.82;11.45;;;16.30;99.90;;;;;;1973084;73;21169;-79
2021/06/07 04:41:06;;;;;;;25.15;10.88;;;16.20;99.90;;;;;;1972810;73;21133;-79
2021/06/07 04:43:33;;;;;;;32.30;12.78;;;16.10;99.90;;;;;;1973044;73;21109;-80
2021/06/07 04:45:59;;;;;;;32.80;11.65;;;16.20;99.90;;;;;;1972908;73;21176;-81
2021/06/07 04:48:25;;;;;;;23.77;11.18;;;16.20;99.90;;;;;;1973079;73;21092;-79
2021/06/07 04:50:52;;;;;;;23.83;10.75;;;16.30;99.90;;;;;;1972948;73;21125;-79
2021/06/07 04:53:18;;;;;;;33.33;11.15;;;16.30;99.90;;;;;;1973082;73;21079;-78
2021/06/07 04:55:44;;;;;;;27.15;10.88;;;16.40;99.90;;;;;;1972956;73;21032;-79
2021/06/07 04:58:10;;;;;;;29.10;11.70;;;16.40;99.90;;;;;;1973387;73;21112;-79
2021/06/07 05:00:36;;;;;;;23.90;9.90;;;16.40;99.90;;;;;;1972969;73;21169;-78
2021/06/07 05:03:02;;;;;;;25.92;10.68;;;16.50;99.90;;;;;;1973215;73;21052;-79
2021/06/07 05:05:28;;;;;;;30.70;11.83;;;16.50;99.90;;;;;;1972996;73;21482;-79
2021/06/07 05:07:54;;;;;;;23.57;11.10;;;16.50;99.90;;;;;;1973599;73;21495;-79
2021/06/07 05:10:21;;;;;;;23.40;9.30;;;16.50;99.90;;;;;;1973243;73;21503;-77
2021/06/07 05:12:47;;;;;;;29.70;9.75;;;16.50;99.90;;;;;;1973049;73;21408;-83
2021/06/07 05:15:14;;;;;;;26.60;10.55;;;16.40;99.90;;;;;;1973486;73;21546;-82
2021/06/07 05:17:40;;;;;;;29.02;10.80;;;16.50;99.90;;;;;;1973050;73;21075;-81
2021/06/07 05:20:06;;;;;;;25.35;11.00;;;16.50;99.90;;;;;;1969457;72;21091;-80
2021/06/07 05:22:32;;;;;;;30.37;11.20;;;16.50;99.90;;;;;;1969732;71;21075;-79
2021/06/07 05:24:58;;;;;;;26.55;10.80;;;16.40;99.90;;;;;;1973121;70;21125;-79
2021/06/07 05:27:26;;;;;;;24.67;10.82;;;16.30;99.90;;;;;;1973046;73;21047;-80
2021/06/07 05:29:52;;;;;;;36.95;11.85;;;16.30;99.90;;;;;;1960443;70;21083;-82
2021/06/07 05:32:18;;;;;;;34.45;11.90;;;16.30;99.90;;;;;;1982438;71;21186;-80
2021/06/07 05:34:44;;;;;;;31.55;12.15;;;16.40;99.90;;;;;;1981158;71;21152;-81
2021/06/07 05:37:11;;;;;;;32.03;12.15;;;16.30;99.90;;;;;;1979495;71;21478;-81
2021/06/07 05:39:37;;;;;;;29.98;11.33;;;16.30;99.90;;;;;;1973489;71;21593;-84
2021/06/07 05:42:04;;;;;;;27.75;11.12;;;16.30;99.90;;;;;;1978897;71;21536;-81
2021/06/07 05:44:30;;;;;;;23.80;11.48;;;16.30;99.90;;;;;;1973101;73;21063;-80
2021/06/07 05:46:56;;;;;;;34.18;12.45;;;16.30;99.90;;;;;;1973085;73;21136;-81
2021/06/07 05:49:22;;;;;;;30.43;12.28;;;16.30;99.90;;;;;;1973118;73;21071;-80
2021/06/07 05:51:48;;;;;;;26.50;11.22;;;16.30;99.90;;;;;;1973154;73;21107;-80
2021/06/07 05:54:15;;;;;;;32.53;12.05;;;16.30;99.90;;;;;;1973086;73;21083;-80
2021/06/07 05:56:41;;;;;;;28.55;12.60;;;16.30;99.90;;;;;;1973004;73;21028;-80
2021/06/07 05:59:07;;;;;;;29.32;12.07;;;16.30;99.90;;;;;;1973071;73;21129;-80
2021/06/07 06:01:33;;;;;;;28.57;11.50;;;16.30;99.90;;;;;;1973150;73;21092;-80
2021/06/07 06:03:59;;;;;;;29.18;12.10;;;16.30;99.90;;;;;;1973181;73;21119;-81
2021/06/07 06:06:25;;;;;;;29.15;11.83;;;16.30;99.90;;;;;;1973189;73;21084;-80
2021/06/07 06:08:51;;;;;;;24.30;11.70;;;16.40;99.90;;;;;;1973050;73;21091;-81
2021/06/07 06:11:17;;;;;;;26.45;11.38;;;16.50;99.90;;;;;;1973065;73;21023;-80
2021/06/07 06:13:45;;;;;;;35.63;10.40;;;16.50;99.90;;;;;;1973092;73;21140;-81
2021/06/07 06:16:11;;;;;;;30.10;11.45;;;16.50;99.90;;;;;;1973248;73;21161;-80
2021/06/07 06:18:38;;;;;;;28.80;11.85;;;16.60;99.90;;;;;;1973117;73;21063;-81
2021/06/07 06:21:04;;;;;;;27.37;10.78;;;16.50;99.90;;;;;;1973164;73;21500;-81
2021/06/07 06:23:30;;;;;;;26.68;11.40;;;16.50;99.90;;;;;;1973117;73;21539;-81
2021/06/07 06:25:56;;;;;;;29.70;11.05;;;16.40;99.90;;;;;;1973092;73;21506;-81
2021/06/07 06:28:22;;;;;;;24.90;11.25;;;16.50;99.90;;;;;;1973193;73;21028;-83
2021/06/07 06:30:48;;;;;;;28.05;11.68;;;16.50;99.90;;;;;;1973070;73;21158;-83
2021/06/07 06:33:14;;;;;;;26.20;11.22;;;16.50;99.90;;;;;;1973096;73;21048;-82
2021/06/07 06:35:41;;;;;;;33.35;11.73;;;16.50;99.90;;;;;;1973069;73;21028;-83
2021/06/07 06:38:07;;;;;;;31.50;11.25;;;16.40;99.90;;;;;;1973012;73;21125;-83
2021/06/07 06:40:33;;;;;;;24.47;10.72;;;16.40;99.90;;;;;;1973405;73;21080;-82
2021/06/07 06:42:59;;;;;;;27.93;11.30;;;16.40;99.90;;;;;;1973542;73;21127;-82
2021/06/07 06:45:27;;;;;;;30.05;11.28;;;16.30;99.90;;;;;;1973251;73;21092;-82
2021/06/07 06:47:59;;;;;;;29.90;12.45;;;16.30;99.90;;;;;;1973379;72;21059;-81
2021/06/07 06:50:27;;;;;;;29.55;11.85;;;16.20;99.90;;;;;;1973151;72;21080;-84
2021/06/07 06:52:56;;;;;;;27.73;10.93;;;16.20;99.90;;;;;;1973259;73;21512;-82
2021/06/07 06:55:23;;;;;;;31.42;11.38;;;16.30;99.90;;;;;;1973102;73;21515;-81
2021/06/07 06:57:49;;;;;;;26.65;11.18;;;16.20;99.90;;;;;;1973126;73;21625;-81
2021/06/07 07:00:15;;;;;;;28.35;10.20;;;16.30;99.90;;;;;;1973149;73;21584;-82
2021/06/07 07:02:41;;;;;;;26.37;10.90;;;16.30;99.90;;;;;;1972881;73;21447;-80
2021/06/07 07:05:07;;;;;;;19.70;8.78;;;16.40;99.90;;;;;;1973164;73;21527;-80
2021/06/07 07:07:33;;;;;;;24.55;9.35;;;16.50;99.90;;;;;;1972919;73;21553;-77
2021/06/07 07:09:59;;;;;;;20.48;8.90;;;16.50;99.90;;;;;;1973154;73;21582;-77
2021/06/07 07:12:26;;;;;;;21.07;8.28;;;16.50;99.90;;;;;;1972897;73;21495;-77
2021/06/07 07:14:53;;;;;;;20.72;8.70;;;16.60;99.90;;;;;;1973086;71;21091;-79
2021/06/07 07:17:19;;;;;;;19.77;7.78;;;16.60;99.90;;;;;;1973049;73;21067;-82
2021/06/07 07:19:46;;;;;;;14.58;6.37;;;16.60;99.90;;;;;;1973041;73;21184;-79
2021/06/07 07:22:13;;;;;;;16.12;6.35;;;16.70;99.90;;;;;;1972935;73;21066;-77
2021/06/07 07:27:23;;;;;;;12.13;6.08;;;16.80;99.90;;;;;;1973060;73;21051;-79
2021/06/07 07:29:50;;;;;;;11.25;5.35;;;16.80;99.90;;;;;;1973129;73;21575;-80
2021/06/07 07:32:16;;;;;;;15.70;5.60;;;16.80;99.90;;;;;;1973172;73;21496;-78
2021/06/07 07:34:42;;;;;;;15.38;7.05;;;16.90;99.90;;;;;;1973055;73;21482;-80
2021/06/07 07:37:08;;;;;;;13.90;6.25;;;16.80;99.90;;;;;;1972927;73;21556;-81
2021/06/07 07:39:34;;;;;;;10.15;6.03;;;17.00;99.90;;;;;;2003931;71;21202;-80
2021/06/07 07:42:00;;;;;;;12.58;5.92;;;17.00;99.90;;;;;;1989957;71;21045;-80
2021/06/07 07:44:26;;;;;;;14.45;6.45;;;17.10;99.90;;;;;;1975781;72;21169;-78
2021/06/07 07:46:53;;;;;;;14.47;6.47;;;17.10;99.90;;;;;;1973147;73;21095;-81
2021/06/07 07:49:19;;;;;;;16.00;6.95;;;17.10;99.90;;;;;;1973098;73;21094;-78
2021/06/07 07:51:45;;;;;;;16.27;6.25;;;17.00;99.90;;;;;;1971087;71;21047;-79
2021/06/07 07:54:11;;;;;;;17.37;7.75;;;16.90;99.90;;;;;;1973473;73;21084;-78
2021/06/07 07:56:37;;;;;;;18.80;7.20;;;17.00;99.90;;;;;;1973533;73;21161;-78
2021/06/07 07:59:03;;;;;;;13.48;6.97;;;17.00;99.90;;;;;;1973439;73;21084;-78
2021/06/07 08:01:29;;;;;;;17.62;7.85;;;17.00;99.90;;;;;;1973515;73;21164;-79
2021/06/07 08:03:55;;;;;;;12.82;6.78;;;17.10;99.90;;;;;;1977933;71;21059;-78
2021/06/07 08:06:22;;;;;;;13.55;6.80;;;17.00;99.90;;;;;;1974272;71;21073;-78
2021/06/07 08:08:48;;;;;;;14.68;6.42;;;17.10;99.90;;;;;;1973279;73;21169;-78
2021/06/07 08:11:14;;;;;;;12.47;6.35;;;17.10;99.90;;;;;;1973389;73;21125;-78
2021/06/07 08:13:53;;;;;;;12.82;6.15;;;17.10;99.90;;;;;;1973268;72;21100;-76
2021/06/07 08:16:19;;;;;;;13.45;5.58;;;16.90;99.90;;;;;;1971188;72;21126;-78
2021/06/07 08:18:45;;;;;;;10.75;5.20;;;17.10;99.90;;;;;;1973078;73;21131;-78
2021/06/07 08:21:11;;;;;;;12.90;5.20;;;17.00;99.90;;;;;;1978675;71;21078;-78
2021/06/07 08:23:37;;;;;;;11.75;5.72;;;17.10;99.90;;;;;;1973179;73;21094;-78
2021/06/07 08:26:04;;;;;;;10.28;5.37;;;17.20;99.90;;;;;;1973151;73;21024;-77
2021/06/07 08:28:30;;;;;;;9.98;4.62;;;17.40;99.90;;;;;;1973047;73;21176;-78
2021/06/07 08:30:56;;;;;;;7.67;4.10;;;17.40;99.90;;;;;;1972916;73;21055;-78
2021/06/07 08:33:22;;;;;;;9.93;4.85;;;17.60;99.90;;;;;;1973110;73;21157;-77
2021/06/07 08:35:48;;;;;;;9.40;5.05;;;17.70;99.90;;;;;;1973164;73;21055;-78
2021/06/07 08:38:14;;;;;;;8.43;4.62;;;17.80;99.90;;;;;;1973336;73;21084;-80
2021/06/07 08:40:40;;;;;;;12.68;5.08;;;17.90;99.90;;;;;;1973113;73;21133;-78
2021/06/07 08:43:06;;;;;;;12.53;5.42;;;17.90;99.90;;;;;;1973446;73;21080;-77
2021/06/07 08:45:34;;;;;;;12.30;4.75;;;17.80;99.90;;;;;;1973214;73;21116;-77
2021/06/07 08:48:00;;;;;;;11.48;5.92;;;17.60;99.90;;;;;;1973513;71;21087;-79
2021/06/07 08:50:26;;;;;;;9.90;5.62;;;17.60;99.90;;;;;;1973495;73;21073;-78
2021/06/07 08:52:53;;;;;;;16.37;6.58;;;17.60;99.90;;;;;;1973501;73;21088;-78
2021/06/07 08:55:19;;;;;;;12.78;5.83;;;17.50;99.90;;;;;;1973402;73;21375;-79
2021/06/07 08:57:46;;;;;;;11.38;5.58;;;17.50;99.90;;;;;;1973256;73;21066;-78
2021/06/07 09:00:12;;;;;;;11.83;5.60;;;17.40;99.90;;;;;;1973398;73;21093;-79
2021/06/07 09:02:39;;;;;;;14.03;6.37;;;17.50;99.90;;;;;;1973239;73;21058;-78
2021/06/07 09:05:05;;;;;;;16.52;6.70;;;17.40;99.90;;;;;;1973369;73;21048;-78
2021/06/07 09:07:31;;;;;;;13.88;6.45;;;17.30;99.90;;;;;;1973430;73;21142;-79
2021/06/07 09:09:57;;;;;;;12.55;5.78;;;17.40;99.90;;;;;;1974466;73;21080;-78
2021/06/07 09:12:24;;;;;;;13.95;6.92;;;17.50;99.90;;;;;;1974022;73;21067;-84
2021/06/07 09:14:50;;;;;;;17.70;7.37;;;17.30;99.90;;;;;;1973381;73;21043;-79
2021/06/07 09:17:17;;;;;;;16.75;6.60;;;17.20;99.90;;;;;;1973475;73;21089;-79
2021/06/07 09:19:43;;;;;;;19.55;8.15;;;17.20;99.90;;;;;;1973300;73;21570;-79
2021/06/07 09:22:09;;;;;;;15.23;7.80;;;17.30;99.90;;;;;;1974212;73;21107;-79
2021/06/07 09:24:35;;;;;;;17.87;7.62;;;17.40;99.90;;;;;;1974165;73;21024;-79
2021/06/07 09:27:01;;;;;;;15.00;7.25;;;17.60;99.90;;;;;;1973753;73;21507;-79
2021/06/07 09:29:27;;;;;;;20.43;6.97;;;17.60;99.90;;;;;;1973714;73;21121;-81
2021/06/07 09:31:53;;;;;;;18.87;7.40;;;17.80;99.90;;;;;;1973228;73;21512;-80
2021/06/07 09:34:19;;;;;;;13.13;6.25;;;17.80;99.90;;;;;;1973221;73;21645;-77
2021/06/07 09:36:46;;;;;;;18.48;7.00;;;18.00;99.90;;;;;;1973656;73;21527;-79
2021/06/07 09:39:12;;;;;;;14.63;7.20;;;18.00;99.90;;;;;;1973493;73;21523;-78
2021/06/07 09:41:38;;;;;;;15.90;7.30;;;18.00;99.90;;;;;;1973478;73;21041;-78
2021/06/07 09:44:04;;;;;;;16.93;7.37;;;17.90;99.90;;;;;;1973463;73;21059;-78
2021/06/07 09:46:30;;;;;;;17.75;7.97;;;17.90;99.90;;;;;;1973436;73;21088;-76
2021/06/07 09:48:58;;;;;;;18.00;7.20;;;18.00;99.90;;;;;;1973561;73;21065;-78
2021/06/07 09:51:24;;;;;;;15.13;7.60;;;18.10;99.90;;;;;;1973249;73;21095;-78
2021/06/07 09:53:55;;;;;;;21.00;7.33;;;18.10;99.90;;;;;;1973523;73;21112;-79
2021/06/07 09:56:21;;;;;;;;;;;18.20;99.90;;;;;;1976307;71;21072;-78
2021/06/07 09:58:47;;;;;;;17.50;8.13;;;18.20;99.90;;;;;;1973144;73;20136;-79
2021/06/07 10:01:14;;;;;;;12.63;7.10;;;18.20;99.90;;;;;;1973223;73;21113;-78
2021/06/07 10:03:48;;;;;;;15.18;7.05;;;18.30;99.90;;;;;;1973458;73;21555;-78
2021/06/07 10:06:08;;;;;;;15.05;6.97;;;18.40;99.90;;;;;;1972617;73;21103;-79
2021/06/07 10:08:36;;;;;;;18.50;7.62;;;18.40;99.90;;;;;;1973164;73;21095;-79
2021/06/07 10:11:02;;;;;;;17.30;7.40;;;18.30;99.90;;;;;;1973758;72;21072;-79
2021/06/07 10:13:28;;;;;;;12.82;6.83;;;18.30;99.90;;;;;;1973549;73;21079;-79
2021/06/07 10:15:54;;;;;;;15.32;7.40;;;18.30;99.90;;;;;;1975436;73;21079;-79
2021/06/07 10:18:22;;;;;;;15.75;7.55;;;18.20;99.90;;;;;;1975681;71;21096;-82
2021/06/07 10:23:16;;;;;;;25.23;8.30;;;18.20;99.90;;;;;;1974075;72;21112;-78
2021/06/07 10:25:42;;;;;;;16.15;8.50;;;18.20;99.90;;;;;;1973444;73;21096;-78
2021/06/07 10:28:08;;;;;;;16.93;7.65;;;18.20;99.90;;;;;;1973320;73;21041;-75
2021/06/07 10:30:34;;;;;;;18.95;8.68;;;18.10;99.90;;;;;;1973432;73;21157;-77
2021/06/07 10:33:00;;;;;;;17.15;8.30;;;18.00;99.90;;;;;;1973156;73;21411;-78
2021/06/07 10:35:28;;;;;;;20.17;8.53;;;18.00;99.90;;;;;;1973438;73;21503;-77
2021/06/07 10:37:54;;;;;;;13.85;6.97;;;18.10;99.90;;;;;;1973313;71;21084;-80
2021/06/07 10:40:20;;;;;;;18.65;8.65;;;18.20;99.90;;;;;;1973419;73;21154;-78
2021/06/07 10:42:46;;;;;;;18.52;8.00;;;18.40;99.90;;;;;;1973296;73;21051;-79
2021/06/07 10:45:12;;;;;;;19.23;7.03;;;18.50;99.90;;;;;;1973391;73;21083;-79
2021/06/07 10:47:38;;;;;;;15.45;7.80;;;18.40;99.90;;;;;;1973559;73;21145;-78
2021/06/07 10:50:05;;;;;;;18.37;7.58;;;18.60;99.90;;;;;;1973226;73;21091;-78
2021/06/07 10:52:32;;;;;;;16.42;7.37;;;18.80;99.90;;;;;;1973304;73;21054;-79
2021/06/07 10:54:58;;;;;;;17.57;7.67;;;18.90;99.90;;;;;;1973570;73;21059;-79
2021/06/07 10:57:24;;;;;;;16.60;6.70;;;18.80;99.90;;;;;;1973662;73;21133;-79
2021/06/07 10:59:50;;;;;;;18.23;7.42;;;18.80;99.90;;;;;;1973380;73;21169;-79
2021/06/07 11:02:17;;;;;;;15.55;8.05;;;18.50;99.90;;;;;;1973297;73;21024;-79
2021/06/07 11:04:43;;;;;;;16.40;7.80;;;18.40;99.90;;;;;;1973338;73;21494;-79
2021/06/07 11:07:09;;;;;;;17.57;8.43;;;18.60;99.90;;;;;;1973590;73;21515;-79
2021/06/07 11:09:35;;;;;;;16.45;7.67;;;18.40;99.90;;;;;;1973654;73;21470;-78
2021/06/07 11:12:01;;;;;;;20.37;8.60;;;18.40;99.90;;;;;;1973917;73;21511;-79
2021/06/07 11:14:28;;;;;;;23.22;8.75;;;18.60;99.90;;;;;;1973655;73;21059;-79
2021/06/07 11:16:54;;;;;;;15.65;8.23;;;18.60;99.90;;;;;;1969197;70;21136;-79
2021/06/07 11:19:20;;;;;;;20.37;8.28;;;18.70;99.90;;;;;;1971524;73;21151;-80
2021/06/07 11:21:48;;;;;;;15.43;7.45;;;18.70;99.90;;;;;;1973235;71;21073;-79
2021/06/07 11:24:14;;;;;;;15.83;7.58;;;18.90;99.90;;;;;;1975116;73;21114;-81
2021/06/07 11:26:40;;;;;;;15.30;8.08;;;18.80;99.90;;;;;;1976573;73;21100;-81
2021/06/07 11:29:06;;;;;;;14.80;7.47;;;18.90;99.90;;;;;;1975184;73;21164;-79
2021/06/07 11:31:32;;;;;;;15.00;7.35;;;18.90;99.90;;;;;;1973735;73;21060;-79
2021/06/07 11:33:58;;;;;;;17.05;8.38;;;18.90;99.90;;;;;;1973420;73;21066;-80
2021/06/07 11:36:25;;;;;;;16.02;7.15;;;18.80;99.90;;;;;;1973544;73;21084;-80
2021/06/07 11:38:51;;;;;;;16.20;8.35;;;18.70;99.90;;;;;;1973380;73;21067;-86
2021/06/07 11:41:17;;;;;;;18.20;8.75;;;18.70;99.90;;;;;;1973525;73;21123;-80
2021/06/07 11:43:43;;;;;;;16.85;8.70;;;18.80;99.90;;;;;;1973423;73;21032;-78
2021/06/07 11:46:09;;;;;;;22.50;8.88;;;18.70;99.90;;;;;;1973429;73;21096;-79
2021/06/07 11:48:35;;;;;;;16.62;8.55;;;18.50;99.90;;;;;;1973314;73;21027;-79
2021/06/07 11:51:01;;;;;;;15.35;8.20;;;18.60;99.90;;;;;;1973415;73;21161;-79
2021/06/07 11:53:28;;;;;;;14.90;9.05;;;18.80;99.90;;;;;;1973298;73;21066;-78
2021/06/07 11:55:54;;;;;;;17.87;8.45;;;18.90;99.90;;;;;;1973473;73;21140;-78
2021/06/07 11:58:20;;;;;;;17.40;8.00;;;18.80;99.90;;;;;;1972984;73;21114;-79
2021/06/07 12:00:46;;;;;;;16.73;8.10;;;19.00;99.90;;;;;;1973067;73;21078;-79
2021/06/07 12:03:12;;;;;;;14.00;7.72;;;19.10;99.90;;;;;;1973080;73;21059;-78
2021/06/07 12:05:38;;;;;;;16.55;8.00;;;19.20;99.90;;;;;;1973007;73;21169;-78
2021/06/07 12:08:04;;;;;;;18.05;8.38;;;19.30;99.90;;;;;;1973202;73;21088;-79
2021/06/07 12:10:30;;;;;;;15.40;8.00;;;19.40;99.90;;;;;;1973158;73;21067;-79
2021/06/07 12:12:57;;;;;;;17.55;8.50;;;19.40;99.90;;;;;;1973193;73;21068;-78
2021/06/07 12:15:33;;;;;;;14.80;7.87;;;19.30;99.90;;;;;;1973259;73;21092;-78
2021/06/07 12:17:59;;;;;;;14.85;7.35;;;19.30;99.90;;;;;;1972219;73;21067;-78
2021/06/07 12:20:24;;;;;;;17.37;7.85;;;19.40;99.90;;;;;;1973055;71;21104;-78
2021/06/07 12:22:51;;;;;;;21.65;8.00;;;19.30;99.90;;;;;;1973112;73;21074;-78
2021/06/07 12:30:37;;;;;;;13.70;7.60;;;19.30;99.90;;;;;;1973117;73;21108;-78
2021/06/07 12:33:03;;;;;;;10.70;6.40;;;19.40;99.90;;;;;;1973557;73;21113;-80
2021/06/07 12:35:31;;;;;;;14.50;7.90;;;19.50;99.90;;;;;;1973402;73;21059;-81
2021/06/07 12:37:57;;;;;;;18.25;7.45;;;19.40;99.90;;;;;;1973610;71;21107;-80
2021/06/07 12:40:25;;;;;;;11.48;6.92;;;19.70;99.90;;;;;;1973466;71;21096;-77